Willow Tree, Virginia
Current Conditions -  °F | °C
As of 3:35 AM on Monday 26 Jan 2015 (Local Time) from K1A6 Reporting Station
Overcast Overcast  
Wind Chill: 40°   Ceiling: 1600
Heat Index: 40°   Visibility: 10mi
Dew Point: 37°   Wind: 0mph
Humidity: 88%   Direction: NA
Pressure: 29.67"   Gusts: NA
Location:  36.627°N, 83.5142°W
Report Text: K1A6 260835Z AUTO 00000KT 10SM OVC016 05/03 A2967 RMK AO2 T00450027
Loading
Personal Weather Stations






























Interactive Weather Map New forecast layout! Learn more

10-Day Weather Forecast

Advertisements
Track Severe Weather on mobile